createdAt,value
2017-10-13T00:01:21.115Z,14.60
2017-10-13T00:03:50.173Z,14.50
2017-10-13T00:06:18.459Z,14.60
2017-10-13T00:08:47.567Z,14.60
2017-10-13T00:11:15.848Z,14.60
2017-10-13T00:13:45.634Z,14.70
2017-10-13T00:16:13.974Z,14.60
2017-10-13T00:18:42.263Z,14.60
2017-10-13T00:21:10.554Z,14.50
2017-10-13T00:23:40.030Z,14.50
2017-10-13T00:26:08.310Z,14.60
2017-10-13T00:28:36.599Z,14.60
2017-10-13T00:33:35.241Z,14.60
2017-10-13T00:38:33.494Z,14.60
2017-10-13T00:41:02.919Z,14.60
2017-10-13T00:43:31.973Z,14.60
2017-10-13T00:46:00.322Z,14.60
2017-10-13T00:48:29.363Z,14.60
2017-10-13T00:50:59.194Z,14.60
2017-10-13T00:53:27.518Z,14.60
2017-10-13T00:55:55.934Z,14.60
2017-10-13T00:58:24.218Z,14.60
2017-10-13T01:00:52.548Z,14.60
2017-10-13T01:03:20.816Z,14.60
2017-10-13T01:05:50.254Z,14.50
2017-10-13T01:08:18.584Z,14.50
2017-10-13T01:10:47.439Z,14.50
2017-10-13T01:13:16.890Z,14.50
2017-10-13T01:18:15.222Z,14.40
2017-10-13T01:20:43.610Z,14.40
2017-10-13T01:23:11.966Z,14.40
2017-10-13T01:25:41.005Z,14.40
2017-10-13T01:28:09.346Z,14.40
2017-10-13T01:30:39.174Z,14.30
2017-10-13T01:33:07.468Z,14.30
2017-10-13T01:35:35.915Z,14.30
2017-10-13T01:38:05.429Z,14.30
2017-10-13T01:40:34.486Z,14.30
2017-10-13T01:43:03.531Z,14.20
2017-10-13T01:45:31.866Z,14.20
2017-10-13T01:48:00.142Z,14.20
2017-10-13T01:50:28.421Z,14.10
2017-10-13T01:52:56.751Z,14.10
2017-10-13T01:55:25.030Z,14.10
2017-10-13T01:57:53.306Z,14.00
2017-10-13T02:00:21.667Z,14.00
2017-10-13T02:02:50.343Z,14.00
2017-10-13T02:05:18.631Z,14.00
2017-10-13T02:07:46.956Z,13.90
2017-10-13T02:10:15.244Z,13.90
2017-10-13T02:12:43.846Z,13.90
2017-10-13T02:15:13.336Z,13.90
2017-10-13T02:17:41.614Z,13.90
2017-10-13T02:20:09.891Z,13.90
2017-10-13T02:22:38.201Z,13.80
2017-10-13T02:25:06.475Z,13.80
2017-10-13T02:27:34.751Z,13.80
2017-10-13T02:30:04.594Z,13.80
2017-10-13T02:32:34.019Z,13.80
2017-10-13T02:35:03.069Z,13.80
2017-10-13T02:37:32.522Z,13.80
2017-10-13T02:40:00.805Z,13.80
2017-10-13T02:42:29.089Z,13.90
2017-10-13T02:44:58.534Z,13.90
2017-10-13T02:49:56.710Z,13.90
2017-10-13T02:52:25.039Z,14.00
2017-10-13T02:54:53.315Z,13.90
2017-10-13T02:57:21.595Z,13.90
2017-10-13T02:59:49.983Z,13.90
2017-10-13T03:02:19.026Z,13.90
2017-10-13T03:07:45.459Z,13.90
2017-10-13T03:10:13.743Z,14.00
2017-10-13T03:12:42.102Z,14.00
2017-10-13T03:17:40.286Z,14.00
2017-10-13T03:20:08.643Z,14.00
2017-10-13T03:25:07.177Z,14.00
2017-10-13T03:27:37.444Z,14.00
2017-10-13T03:30:06.486Z,14.00
2017-10-13T03:32:34.766Z,14.10
2017-10-13T03:35:04.594Z,14.10
2017-10-13T03:40:02.774Z,14.10
2017-10-13T03:42:31.080Z,14.10
2017-10-13T03:44:59.354Z,14.00
2017-10-13T03:47:27.635Z,14.00
2017-10-13T03:52:26.216Z,14.00
2017-10-13T03:54:54.498Z,14.00
2017-10-13T03:57:25.074Z,14.10
2017-10-13T03:59:54.858Z,14.10
2017-10-13T04:02:24.642Z,14.10
2017-10-13T04:04:52.975Z,14.10
2017-10-13T04:07:21.271Z,14.10
2017-10-13T04:12:19.638Z,14.10
2017-10-13T04:14:48.306Z,14.10
2017-10-13T04:17:16.591Z,14.10
2017-10-13T04:22:14.826Z,14.00
2017-10-13T04:24:43.515Z,14.00
2017-10-13T04:27:11.847Z,14.00
2017-10-13T04:29:41.270Z,14.00
2017-10-13T04:32:10.309Z,14.00
2017-10-13T04:34:39.766Z,14.00
2017-10-13T04:37:08.046Z,14.10
2017-10-13T04:39:36.326Z,14.10
2017-10-13T04:42:06.166Z,14.10
2017-10-13T04:47:04.727Z,14.20
2017-10-13T04:49:33.092Z,14.20
2017-10-13T04:52:02.140Z,14.20
2017-10-13T04:54:31.551Z,14.20
2017-10-13T04:57:00.261Z,14.30
2017-10-13T04:59:28.538Z,14.30
2017-10-13T05:04:26.786Z,14.30
2017-10-13T05:06:55.071Z,14.30
2017-10-13T05:09:23.360Z,14.40
2017-10-13T05:11:51.687Z,14.30
2017-10-13T05:14:19.963Z,14.40
2017-10-13T05:16:48.241Z,14.30
2017-10-13T05:19:17.705Z,14.40
2017-10-13T05:21:45.982Z,14.40
2017-10-13T05:24:14.263Z,14.40
2017-10-13T05:29:12.517Z,14.50
2017-10-13T05:31:41.939Z,14.40
2017-10-13T05:36:40.186Z,14.50
2017-10-13T05:41:38.402Z,14.50
2017-10-13T05:44:06.686Z,14.50
2017-10-13T05:46:34.967Z,14.50
2017-10-13T05:49:03.307Z,14.60
2017-10-13T05:51:31.590Z,14.60
2017-10-13T05:53:59.873Z,14.60
2017-10-13T05:56:28.207Z,14.60
2017-10-13T05:58:57.625Z,14.70
2017-10-13T06:01:25.899Z,14.70
2017-10-13T06:03:54.223Z,14.70
2017-10-13T06:06:24.006Z,14.70
2017-10-13T06:11:21.835Z,14.70
2017-10-13T06:15:10.802Z,14.70
2017-10-13T06:17:39.898Z,14.80
2017-10-13T06:20:08.178Z,14.80
2017-10-13T06:22:36.464Z,14.80
2017-10-13T06:25:06.571Z,14.80
2017-10-13T06:27:34.841Z,14.80
2017-10-13T06:30:03.123Z,14.80
2017-10-13T06:32:31.584Z,14.80
2017-10-13T06:34:59.866Z,14.80
2017-10-13T06:37:28.910Z,14.90
2017-10-13T06:39:57.239Z,14.90
2017-10-13T06:42:25.523Z,14.90
2017-10-13T06:44:53.806Z,15.00
2017-10-13T06:47:22.126Z,15.00
2017-10-13T06:49:50.403Z,15.10
2017-10-13T06:52:18.676Z,15.10
2017-10-13T06:54:47.002Z,15.10
2017-10-13T06:57:16.791Z,15.20
2017-10-13T06:59:46.219Z,15.20
2017-10-13T07:02:14.531Z,15.30
2017-10-13T07:04:44.323Z,15.30
2017-10-13T07:07:12.612Z,15.30
2017-10-13T07:09:40.926Z,15.40
2017-10-13T07:12:09.222Z,15.40
2017-10-13T07:14:37.506Z,15.40
2017-10-13T07:17:05.839Z,15.40
2017-10-13T07:19:34.887Z,15.50
2017-10-13T07:22:03.934Z,15.50
2017-10-13T07:27:01.770Z,15.60
2017-10-13T07:29:30.051Z,15.70
2017-10-13T07:31:59.496Z,15.80
2017-10-13T07:34:28.547Z,15.90
2017-10-13T07:36:56.826Z,16.00
2017-10-13T07:39:25.158Z,16.20
2017-10-13T07:41:53.451Z,16.40
2017-10-13T07:44:21.735Z,16.50
2017-10-13T07:46:50.060Z,16.60
2017-10-13T07:49:18.337Z,16.90
2017-10-13T07:51:46.623Z,17.20
2017-10-13T07:54:14.935Z,17.40
2017-10-13T07:56:43.210Z,17.60
2017-10-13T07:59:12.627Z,17.70
2017-10-13T08:01:40.983Z,17.80
2017-10-13T08:04:09.266Z,17.90
2017-10-13T08:06:37.552Z,18.00
2017-10-13T08:09:06.294Z,18.00
2017-10-13T08:11:36.011Z,18.00
2017-10-13T08:14:04.295Z,18.00
2017-10-13T08:18:33.538Z,18.00
2017-10-13T08:21:01.830Z,18.10
2017-10-13T08:23:30.111Z,18.10
2017-10-13T08:25:59.203Z,18.10
2017-10-13T08:28:27.482Z,18.20
2017-10-13T08:30:56.170Z,18.30
2017-10-13T08:33:24.510Z,18.40
2017-10-13T08:35:52.791Z,18.40
2017-10-13T08:38:22.222Z,18.50
2017-10-13T08:40:51.330Z,18.50
2017-10-13T08:43:19.615Z,18.50
2017-10-13T08:45:47.895Z,18.40
2017-10-13T08:48:17.351Z,18.30
2017-10-13T08:50:45.646Z,18.40
2017-10-13T08:53:13.931Z,18.40
2017-10-13T08:55:42.266Z,18.40
2017-10-13T08:58:12.054Z,18.30
2017-10-13T09:00:40.342Z,18.30
2017-10-13T09:03:08.675Z,18.30
2017-10-13T09:05:37.732Z,18.30
2017-10-13T09:08:06.019Z,18.30
2017-10-13T09:10:34.360Z,18.30
2017-10-13T09:15:32.936Z,18.30
2017-10-13T09:18:02.051Z,18.30
2017-10-13T09:20:30.331Z,18.40
2017-10-13T09:23:04.192Z,18.30
2017-10-13T09:25:33.671Z,18.20
2017-10-13T09:28:02.735Z,18.20
2017-10-13T09:30:31.090Z,18.30
2017-10-13T09:32:59.409Z,18.40
2017-10-13T09:35:28.831Z,18.60
2017-10-13T09:37:58.286Z,18.80
2017-10-13T09:40:26.995Z,18.90
2017-10-13T09:42:55.287Z,18.90
2017-10-13T09:47:53.919Z,18.90
2017-10-13T09:50:22.203Z,19.00
2017-10-13T09:52:50.538Z,19.00
2017-10-13T09:55:19.589Z,19.00
2017-10-13T09:57:47.882Z,19.00
2017-10-13T10:00:16.213Z,19.00
2017-10-13T10:02:44.499Z,18.90
2017-10-13T10:05:12.794Z,18.90
2017-10-13T10:07:41.142Z,19.00
2017-10-13T10:10:09.411Z,19.10
2017-10-13T10:12:37.694Z,19.20
2017-10-13T10:15:06.786Z,19.30
2017-10-13T10:17:35.481Z,19.30
2017-10-13T10:20:03.767Z,19.20
2017-10-13T10:22:32.090Z,19.30
2017-10-13T10:25:01.147Z,19.30
2017-10-13T10:27:29.423Z,19.20
2017-10-13T10:32:27.672Z,19.40
2017-10-13T10:34:56.718Z,19.40
2017-10-13T10:37:25.821Z,19.60
2017-10-13T10:39:54.106Z,19.80
2017-10-13T10:42:23.159Z,19.90
2017-10-13T10:44:52.253Z,20.10
2017-10-13T10:49:50.812Z,20.50
2017-10-13T10:54:49.039Z,20.70
2017-10-13T10:57:17.311Z,20.70
2017-10-13T10:59:45.630Z,20.70
2017-10-13T11:02:13.904Z,20.70
2017-10-13T11:04:42.948Z,20.70
2017-10-13T11:07:11.274Z,20.50
2017-10-13T11:09:41.097Z,20.50
2017-10-13T11:12:09.391Z,20.50
2017-10-13T11:14:37.709Z,20.50
2017-10-13T11:17:05.977Z,20.40
2017-10-13T11:19:34.254Z,20.40
2017-10-13T11:22:02.576Z,20.40
2017-10-13T11:24:30.845Z,20.40
2017-10-13T11:26:59.891Z,20.50
2017-10-13T11:29:28.209Z,20.50
2017-10-13T11:31:56.495Z,20.70
2017-10-13T11:34:24.783Z,20.80
2017-10-13T11:36:53.105Z,20.80
2017-10-13T11:39:21.382Z,20.90
2017-10-13T11:41:49.666Z,20.90
2017-10-13T11:44:17.990Z,20.90
2017-10-13T11:46:47.775Z,21.00
2017-10-13T11:49:16.048Z,21.20
2017-10-13T11:51:45.167Z,21.20
2017-10-13T11:54:13.444Z,21.10
2017-10-13T11:56:41.713Z,21.20
2017-10-13T11:59:11.194Z,21.30
2017-10-13T12:01:39.467Z,21.50
2017-10-13T12:04:07.740Z,21.70
2017-10-13T12:06:36.064Z,21.90
2017-10-13T12:09:05.102Z,22.10
2017-10-13T12:11:34.151Z,22.20
2017-10-13T12:14:02.498Z,22.40
2017-10-13T12:19:01.795Z,22.60
2017-10-13T12:21:31.265Z,22.50
2017-10-13T12:23:59.544Z,22.40
2017-10-13T12:26:27.823Z,22.10
2017-10-13T12:28:56.910Z,22.00
2017-10-13T12:33:55.078Z,21.80
2017-10-13T12:36:23.400Z,21.70
2017-10-13T12:38:51.670Z,21.80
2017-10-13T12:41:19.947Z,21.90
2017-10-13T12:43:48.270Z,22.10
2017-10-13T12:46:16.551Z,22.10
2017-10-13T12:51:14.390Z,22.10
2017-10-13T12:53:42.675Z,22.20
2017-10-13T12:56:12.454Z,22.20
2017-10-13T12:58:40.794Z,22.30
2017-10-13T13:01:09.072Z,22.20
2017-10-13T13:03:37.354Z,22.10
2017-10-13T13:06:06.442Z,22.10
2017-10-13T13:08:35.493Z,22.20
2017-10-13T13:11:04.531Z,22.10
2017-10-13T13:13:32.907Z,22.20
2017-10-13T13:16:02.681Z,22.20
2017-10-13T13:18:30.959Z,22.30
2017-10-13T13:20:59.311Z,22.40
2017-10-13T13:23:27.585Z,22.50
2017-10-13T13:25:55.862Z,22.30
2017-10-13T13:28:25.326Z,22.30
2017-10-13T13:30:53.602Z,22.10
2017-10-13T13:33:21.882Z,22.00
2017-10-13T13:35:50.602Z,21.90
2017-10-13T13:38:18.892Z,21.80
2017-10-13T13:40:47.939Z,21.60
2017-10-13T13:43:17.018Z,21.60
2017-10-13T13:45:46.075Z,21.50
2017-10-13T13:48:14.350Z,21.30
2017-10-13T13:50:42.671Z,21.30
2017-10-13T13:53:10.959Z,21.20
2017-10-13T13:55:40.744Z,21.10
2017-10-13T13:58:09.439Z,21.20
2017-10-13T14:00:38.867Z,21.20
2017-10-13T14:03:07.151Z,21.20
2017-10-13T14:05:35.752Z,21.20
2017-10-13T14:08:04.074Z,21.20
2017-10-13T14:10:32.338Z,21.20
2017-10-13T14:13:01.809Z,21.20
2017-10-13T14:15:30.119Z,21.20
2017-10-13T14:17:58.397Z,21.20
2017-10-13T14:20:27.993Z,21.10
2017-10-13T14:22:56.663Z,21.10
2017-10-13T14:25:26.077Z,21.10
2017-10-13T14:27:55.179Z,21.10
2017-10-13T14:30:23.461Z,21.10
2017-10-13T14:32:52.121Z,21.10
2017-10-13T14:35:20.444Z,21.10
2017-10-13T14:37:48.732Z,21.00
2017-10-13T14:40:17.006Z,21.00
2017-10-13T14:42:45.337Z,21.00
2017-10-13T14:45:14.751Z,21.00
2017-10-13T14:47:43.019Z,21.00
2017-10-13T14:50:12.110Z,20.90
2017-10-13T14:52:41.883Z,20.90
2017-10-13T14:55:10.154Z,21.00
2017-10-13T14:57:38.483Z,21.00
2017-10-13T15:00:07.894Z,20.90
2017-10-13T15:02:36.177Z,21.00
2017-10-13T15:05:04.510Z,21.00
2017-10-13T15:07:33.914Z,20.90
2017-10-13T15:12:32.147Z,21.10
2017-10-13T15:15:00.422Z,21.10
2017-10-13T15:17:28.695Z,21.00
2017-10-13T15:19:57.777Z,20.90
2017-10-13T15:22:26.456Z,20.80
2017-10-13T15:25:00.486Z,20.80
2017-10-13T15:27:34.499Z,20.80
2017-10-13T15:30:09.326Z,20.70
2017-10-13T15:32:43.187Z,20.60
2017-10-13T15:35:18.001Z,20.50
2017-10-13T15:37:51.894Z,20.50
2017-10-13T15:40:25.906Z,20.50
2017-10-13T15:45:35.991Z,20.50
2017-10-13T15:48:09.997Z,20.50
2017-10-13T15:50:44.474Z,20.50
2017-10-13T15:53:12.749Z,20.50
2017-10-13T15:55:42.157Z,20.40
2017-10-13T15:58:10.478Z,20.40
2017-10-13T16:00:38.755Z,20.30
2017-10-13T16:03:07.021Z,20.30
2017-10-13T16:05:36.494Z,20.30
2017-10-13T16:08:04.778Z,20.20
2017-10-13T16:10:33.822Z,20.20
2017-10-13T16:13:02.923Z,20.30
2017-10-13T16:15:31.970Z,20.20
2017-10-13T16:18:01.378Z,20.20
2017-10-13T16:23:22.001Z,20.10
2017-10-13T16:25:50.274Z,20.10
2017-10-13T16:28:20.050Z,20.00
2017-10-13T16:30:48.782Z,20.00
2017-10-13T16:33:18.557Z,20.00
2017-10-13T16:35:46.830Z,20.00
2017-10-13T16:38:15.922Z,20.00
2017-10-13T16:43:14.831Z,20.00
2017-10-13T16:45:43.142Z,20.00
2017-10-13T16:48:12.186Z,20.00
2017-10-13T16:50:40.462Z,20.00
2017-10-13T16:53:08.775Z,20.00
2017-10-13T16:55:37.051Z,20.00
2017-10-13T16:58:05.718Z,19.90
2017-10-13T17:00:34.049Z,19.90
2017-10-13T17:03:03.086Z,19.90
2017-10-13T17:05:31.756Z,19.90
2017-10-13T17:08:00.067Z,19.90
2017-10-13T17:10:28.342Z,19.90
2017-10-13T17:12:56.622Z,19.90
2017-10-13T17:15:26.182Z,19.90
2017-10-13T17:17:54.851Z,19.90
2017-10-13T17:20:23.171Z,19.90
2017-10-13T17:22:51.466Z,19.90
2017-10-13T17:25:20.182Z,19.90
2017-10-13T17:27:48.490Z,19.90
2017-10-13T17:30:16.775Z,19.90
2017-10-13T17:32:45.050Z,19.90
2017-10-13T17:35:14.159Z,19.90
2017-10-13T17:37:42.839Z,19.80
2017-10-13T17:40:11.114Z,19.90
2017-10-13T17:42:39.432Z,19.90
2017-10-13T17:45:07.714Z,19.80
2017-10-13T17:47:36.000Z,19.80
2017-10-13T17:50:05.094Z,19.90
2017-10-13T17:55:02.882Z,19.90
2017-10-13T17:57:32.559Z,19.90
2017-10-13T18:00:00.834Z,19.80
2017-10-13T18:02:29.882Z,19.80
2017-10-13T18:04:58.246Z,19.80
2017-10-13T18:07:26.534Z,19.80
2017-10-13T18:09:54.821Z,19.70
2017-10-13T18:12:24.666Z,19.80
2017-10-13T18:14:52.938Z,19.70
2017-10-13T18:17:22.358Z,19.70
2017-10-13T18:19:51.045Z,19.70
2017-10-13T18:22:19.334Z,19.70
2017-10-13T18:24:47.619Z,19.70
2017-10-13T18:27:16.722Z,19.70
2017-10-13T18:32:15.638Z,19.70
2017-10-13T18:34:44.931Z,19.70
2017-10-13T18:37:13.213Z,19.70
2017-10-13T18:39:42.250Z,19.60
2017-10-13T18:42:11.623Z,19.70
2017-10-13T18:44:39.897Z,19.60
2017-10-13T18:47:08.171Z,19.60
2017-10-13T18:49:36.473Z,19.60
2017-10-13T18:52:04.791Z,19.50
2017-10-13T18:54:33.197Z,19.60
2017-10-13T18:57:02.312Z,19.50
2017-10-13T18:59:30.590Z,19.50
2017-10-13T19:01:58.894Z,19.50
2017-10-13T19:04:28.239Z,19.50
2017-10-13T19:06:57.721Z,19.50
2017-10-13T19:09:27.175Z,19.50
2017-10-13T19:11:57.038Z,19.50
2017-10-13T19:14:25.721Z,19.50
2017-10-13T19:16:54.795Z,19.50
2017-10-13T19:19:23.117Z,19.40
2017-10-13T19:21:51.411Z,19.50
2017-10-13T19:24:19.697Z,19.40
2017-10-13T19:26:48.010Z,19.40
2017-10-13T19:29:17.484Z,19.40
2017-10-13T19:31:45.771Z,19.40
2017-10-13T19:34:14.114Z,19.40
2017-10-13T19:36:43.161Z,19.40
2017-10-13T19:39:12.271Z,19.40
2017-10-13T19:41:40.598Z,19.30
2017-10-13T19:44:08.878Z,19.30
2017-10-13T19:46:37.211Z,19.30
2017-10-13T19:49:05.559Z,19.30
2017-10-13T19:51:33.846Z,19.30
2017-10-13T19:54:03.639Z,19.30
2017-10-13T19:56:32.003Z,19.30
2017-10-13T19:59:00.283Z,19.30
2017-10-13T20:01:28.960Z,19.20
2017-10-13T20:03:57.273Z,19.20
2017-10-13T20:06:25.554Z,19.20
2017-10-13T20:08:54.974Z,19.20
2017-10-13T20:11:23.703Z,19.10
2017-10-13T20:13:51.982Z,19.10
2017-10-13T20:16:20.330Z,19.10
2017-10-13T20:18:48.650Z,19.10
2017-10-13T20:21:18.078Z,19.10
2017-10-13T20:23:47.136Z,19.10
2017-10-13T20:26:17.804Z,19.00
2017-10-13T20:28:46.106Z,19.00
2017-10-13T20:31:14.394Z,19.00
2017-10-13T20:33:42.725Z,18.90
2017-10-13T20:36:11.399Z,18.90
2017-10-13T20:38:40.814Z,18.80
2017-10-13T20:41:09.141Z,18.80
2017-10-13T20:43:38.226Z,18.80
2017-10-13T20:46:07.265Z,18.80
2017-10-13T20:48:37.116Z,18.80
2017-10-13T20:51:05.455Z,18.70
2017-10-13T20:53:33.768Z,18.70
2017-10-13T20:56:02.074Z,18.70
2017-10-13T20:58:30.350Z,18.70
2017-10-13T21:00:58.631Z,18.70
2017-10-13T21:03:28.124Z,18.60
2017-10-13T21:08:26.298Z,18.60
2017-10-13T21:10:54.626Z,18.60
2017-10-13T21:13:22.916Z,18.60
2017-10-13T21:15:51.198Z,18.60
2017-10-13T21:18:19.539Z,18.60
2017-10-13T21:20:47.822Z,18.60
2017-10-13T21:25:45.658Z,18.60
2017-10-13T21:28:15.450Z,18.60
2017-10-13T21:30:45.295Z,18.60
2017-10-13T21:33:13.623Z,18.50
2017-10-13T21:35:43.048Z,18.40
2017-10-13T21:38:11.364Z,18.50
2017-10-13T21:40:39.646Z,18.50
2017-10-13T21:43:07.922Z,18.50
2017-10-13T21:45:37.015Z,18.50
2017-10-13T21:48:06.059Z,18.40
2017-10-13T21:50:35.102Z,18.40
2017-10-13T21:53:03.696Z,18.50
2017-10-13T21:55:32.733Z,18.40
2017-10-13T21:58:01.030Z,18.40
2017-10-13T22:00:29.490Z,18.30
2017-10-13T22:02:57.794Z,18.30
2017-10-13T22:05:26.846Z,18.30
2017-10-13T22:07:55.923Z,18.30
2017-10-13T22:10:24.987Z,18.20
2017-10-13T22:12:54.050Z,18.30
2017-10-13T22:15:22.383Z,18.20
2017-10-13T22:17:52.174Z,18.20
2017-10-13T22:20:22.015Z,18.20
2017-10-13T22:22:50.330Z,18.20
2017-10-13T22:25:18.610Z,18.20
2017-10-13T22:27:48.066Z,18.20
2017-10-13T22:30:16.383Z,18.10
2017-10-13T22:32:44.667Z,18.10
2017-10-13T22:35:13.106Z,18.10
2017-10-13T22:37:41.796Z,18.10
2017-10-13T22:40:10.472Z,18.10
2017-10-13T22:42:38.792Z,18.10
2017-10-13T22:45:08.205Z,18.10
2017-10-13T22:47:36.490Z,18.10
2017-10-13T22:50:05.946Z,18.00
2017-10-13T22:52:34.231Z,18.00
2017-10-13T22:55:02.913Z,17.90
2017-10-13T22:57:32.299Z,17.90
2017-10-13T23:00:00.587Z,17.90
2017-10-13T23:02:29.263Z,17.90
2017-10-13T23:04:59.476Z,17.90
2017-10-13T23:07:27.770Z,17.90
2017-10-13T23:09:56.079Z,17.80
2017-10-13T23:12:24.423Z,17.90
2017-10-13T23:14:53.834Z,17.70
2017-10-13T23:17:22.115Z,17.80
2017-10-13T23:19:50.457Z,17.80
2017-10-13T23:22:19.533Z,17.80
2017-10-13T23:24:47.810Z,17.80
2017-10-13T23:27:17.403Z,17.80
2017-10-13T23:29:46.854Z,17.80
2017-10-13T23:32:15.958Z,17.80
2017-10-13T23:34:44.639Z,17.70
2017-10-13T23:37:12.930Z,17.70
2017-10-13T23:39:41.274Z,17.70
2017-10-13T23:42:11.063Z,17.70
2017-10-13T23:44:39.352Z,17.60
2017-10-13T23:47:07.983Z,17.70
2017-10-13T23:49:36.267Z,17.70
2017-10-13T23:52:05.687Z,17.70
2017-10-13T23:54:34.002Z,17.70
2017-10-13T23:57:02.286Z,17.70
2017-10-13T23:59:30.569Z,17.70
